Strona główna
METAR-TAF:

METAR-TAF

Lotnisko :

Port lotniczy Humberside

Humberside, Anglia

Szerokość geograficzna: 53-35N, Długość geograficzna: 000-21W, wysokość: 31 m

Aktualna obserwacja pogody

Raport powstał 42 minut temu, godzina 03:50 UTC
Cisza
Temperatura 7°C
Wilgotność 93%
Ciśnienie 1026 hPa
Widzialność 10 km lub więcej

METAR: EGNJ 010350Z AUTO 00000KT 9999 NCD 07/06 Q1026

czas: 05:32 (04:32 UTC)

Prognoza

Raport powstał 2 godziny i 36 minut temu, godzina 01:56 UTC
Prognoza ważna od 01 godzina 03 UTC do 01 godzina 12 UTC
Wiatr 1 kt z kierunków zmiennych
Widzialność 10 km lub więcej
Brak chmur poniżej 1500 m i brak chmur cumulonimbus
Prawdopodobieństwo 30%
od 01 godzina 03 UTC do 01 godzina 06 UTC
Widzialność: 3000 m
zamglenie
Stopniowe zmiany
od 01 godzina 09 UTC do 01 godzina 12 UTC
Wiatr 10 kt od wschód

TAF: EGNJ 010156Z 0103/0112 VRB01KT CAVOK PROB30 0103/0106 3000 BR BECMG 0109/0112 09010KT

Obserwacja i prognoza pogody dla ponad 4000 lotnisk (raport METAR i TAF).

Dostępne stacje oznaczono żółtymi i czerwonymi punktami na mapie.

Najedź kursorem aby zobaczyć nazwę stacji.

Kliknij aby zobaczyć obserwacje i prognozy pogody.

Aby zmienić mapę: kliknij na zielony przycisk z czarnym krzyżykiem, aby powiększyć; na zielony przycisk z myślnikiem, aby pomniejszyć; na zielone strzałki, aby przejść do map sąsiednich.


METAR-TAF: